Time,TemperatureF,DewpointF,PressureIn,WindDirection,WindDirectionDegrees,WindSpeedMPH,WindSpeedGustMPH,Humidity,HourlyPrecipIn,Conditions,Clouds,dailyrainin,SoftwareType,DateUTC
2013-06-18 00:02:00,78.0,-99.9,30.01,South,177,9.0,11.0,-999,-99.99,,,-99.99,,2013-06-18 04:02:00,
2013-06-18 00:12:00,79.0,-99.9,30.01,SSE,162,8.0,13.0,-999,-99.99,,,-99.99,,2013-06-18 04:12:00,
2013-06-18 00:23:00,79.0,-99.9,30.01,SSE,162,8.0,13.0,-999,-99.99,,,-99.99,,2013-06-18 04:23:00,
2013-06-18 00:34:00,78.0,-99.9,30.00,SE,143,9.0,12.0,-999,-99.99,,,-99.99,,2013-06-18 04:34:00,
2013-06-18 00:43:00,78.0,-99.9,30.00,SSE,167,9.0,11.0,-999,-99.99,,,-99.99,,2013-06-18 04:43:00,
2013-06-18 00:54:00,78.0,-99.9,30.00,SSE,167,9.0,11.0,-999,-99.99,,,-99.99,,2013-06-18 04:54:00,
2013-06-18 01:03:00,79.0,-99.9,30.00,South,182,9.0,13.0,-999,-99.99,,,-99.99,,2013-06-18 05:03:00,
2013-06-18 01:12:00,79.0,-99.9,29.99,South,176,11.0,13.0,-999,-99.99,,,-99.99,,2013-06-18 05:12:00,
2013-06-18 01:22:00,79.0,-99.9,29.99,South,176,11.0,13.0,-999,-99.99,,,-99.99,,2013-06-18 05:22:00,
2013-06-18 01:34:00,79.0,-99.9,29.99,South,176,10.0,12.0,-999,-99.99,,,-99.99,,2013-06-18 05:34:00,
2013-06-18 01:43:00,79.0,-99.9,29.97,South,175,12.0,15.0,-999,-99.99,,,-99.99,,2013-06-18 05:43:00,
2013-06-18 01:53:00,79.0,-99.9,29.97,South,178,13.0,16.0,-999,-99.99,,,-99.99,,2013-06-18 05:53:00,
2013-06-18 02:02:00,79.0,-99.9,29.97,SW,214,7.0,10.0,-999,-99.99,,,-99.99,,2013-06-18 06:02:00,
2013-06-18 02:12:00,79.0,-99.9,29.97,SSW,197,6.0,9.0,-999,-99.99,,,-99.99,,2013-06-18 06:12:00,
2013-06-18 02:24:00,79.0,-99.9,29.97,SSW,197,6.0,9.0,-999,-99.99,,,-99.99,,2013-06-18 06:24:00,
2013-06-18 02:33:00,79.0,-99.9,29.96,SSW,195,9.0,13.0,-999,-99.99,,,-99.99,,2013-06-18 06:33:00,
2013-06-18 02:43:00,78.0,-99.9,29.96,SW,214,11.0,15.0,-999,-99.99,,,-99.99,,2013-06-18 06:43:00,
2013-06-18 02:53:00,78.0,-99.9,29.96,SW,214,11.0,15.0,-999,-99.99,,,-99.99,,2013-06-18 06:53:00,
2013-06-18 03:02:00,76.0,-99.9,29.97,SW,220,4.0,13.0,-999,-99.99,,,-99.99,,2013-06-18 07:02:00,
2013-06-18 03:12:00,73.0,-99.9,29.99,NW,315,13.0,23.0,-999,-99.99,,,-99.99,,2013-06-18 07:12:00,
2013-06-18 03:22:00,73.0,-99.9,29.99,NW,315,13.0,23.0,-999,-99.99,,,-99.99,,2013-06-18 07:22:00,
2013-06-18 03:33:00,71.0,-99.9,29.98,NNE,14,4.0,14.0,-999,-99.99,,,-99.99,,2013-06-18 07:33:00,
2013-06-18 03:43:00,71.0,-99.9,29.96,NNE,33,3.0,4.0,-999,-99.99,,,-99.99,,2013-06-18 07:43:00,
2013-06-18 03:53:00,71.0,-99.9,29.96,NNE,33,3.0,4.0,-999,-99.99,,,-99.99,,2013-06-18 07:53:00,
2013-06-18 04:11:00,73.0,-99.9,29.94,South,181,10.0,12.0,-999,-99.99,,,-99.99,,2013-06-18 08:11:00,
2013-06-18 04:23:00,73.0,-99.9,29.94,SW,225,4.0,8.0,-999,-99.99,,,-99.99,,2013-06-18 08:23:00,
2013-06-18 04:33:00,73.0,-99.9,29.94,SSW,211,4.0,5.0,-999,-99.99,,,-99.99,,2013-06-18 08:33:00,
2013-06-18 04:43:00,73.0,-99.9,29.94,SW,222,3.0,4.0,-999,-99.99,,,-99.99,,2013-06-18 08:43:00,
2013-06-18 04:52:00,73.0,-99.9,29.94,SSW,211,3.0,5.0,-999,-99.99,,,-99.99,,2013-06-18 08:52:00,
2013-06-18 05:02:00,73.0,-99.9,29.94,SSW,211,3.0,5.0,-999,-99.99,,,-99.99,,2013-06-18 09:02:00,
2013-06-18 05:12:00,74.0,-99.9,29.93,SW,218,3.0,5.0,-999,-99.99,,,-99.99,,2013-06-18 09:12:00,
2013-06-18 05:22:00,74.0,-99.9,29.93,SSW,204,2.0,5.0,-999,-99.99,,,-99.99,,2013-06-18 09:22:00,
2013-06-18 05:34:00,74.0,-99.9,29.93,SSW,202,3.0,4.0,-999,-99.99,,,-99.99,,2013-06-18 09:34:00,
2013-06-18 05:43:00,75.0,-99.9,29.93,SSW,203,3.0,4.0,-999,-99.99,,,-99.99,,2013-06-18 09:43:00,
2013-06-18 05:53:00,75.0,-99.9,29.93,SSW,202,4.0,6.0,-999,-99.99,,,-99.99,,2013-06-18 09:53:00,
2013-06-18 06:02:00,75.0,-99.9,29.93,SSW,202,4.0,6.0,-999,-99.99,,,-99.99,,2013-06-18 10:02:00,
2013-06-18 06:12:00,76.0,-99.9,29.93,SSW,204,5.0,8.0,-999,-99.99,,,-99.99,,2013-06-18 10:12:00,
2013-06-18 06:22:00,76.0,-99.9,29.93,SSW,205,5.0,7.0,-999,-99.99,,,-99.99,,2013-06-18 10:22:00,
2013-06-18 06:33:00,77.0,-99.9,29.93,South,176,6.0,7.0,-999,-99.99,,,-99.99,,2013-06-18 10:33:00,
2013-06-18 06:43:00,77.0,-99.9,29.93,South,176,6.0,7.0,-999,-99.99,,,-99.99,,2013-06-18 10:43:00,
2013-06-18 06:53:00,77.0,-99.9,29.94,South,180,6.0,9.0,-999,-99.99,,,-99.99,,2013-06-18 10:53:00,
2013-06-18 07:02:00,77.0,-99.9,29.93,South,174,6.0,10.0,-999,-99.99,,,-99.99,,2013-06-18 11:02:00,
2013-06-18 07:11:00,77.0,-99.9,29.93,South,174,6.0,10.0,-999,-99.99,,,-99.99,,2013-06-18 11:11:00,
2013-06-18 07:22:00,77.0,-99.9,29.93,South,177,6.0,7.0,-999,-99.99,,,-99.99,,2013-06-18 11:22:00,
2013-06-18 07:32:00,77.0,-99.9,29.93,South,177,6.0,7.0,-999,-99.99,,,-99.99,,2013-06-18 11:32:00,
2013-06-18 07:43:00,78.0,-99.9,29.94,SW,216,4.0,8.0,-999,-99.99,,,-99.99,,2013-06-18 11:43:00,
2013-06-18 07:52:00,78.0,-99.9,29.94,SW,216,3.0,5.0,-999,-99.99,,,-99.99,,2013-06-18 11:52:00,
2013-06-18 08:02:00,78.0,-99.9,29.94,SW,216,3.0,5.0,-999,-99.99,,,-99.99,,2013-06-18 12:02:00,
2013-06-18 08:12:00,78.0,-99.9,29.94,SW,214,4.0,5.0,-999,-99.99,,,-99.99,,2013-06-18 12:12:00,
2013-06-18 08:22:00,78.0,-99.9,29.94,SSW,211,4.0,6.0,-999,-99.99,,,-99.99,,2013-06-18 12:22:00,
2013-06-18 08:33:00,79.0,-99.9,29.94,SW,224,6.0,10.0,-999,-99.99,,,-99.99,,2013-06-18 12:33:00,
2013-06-18 08:43:00,79.0,-99.9,29.95,SW,228,7.0,11.0,-999,-99.99,,,-99.99,,2013-06-18 12:43:00,
2013-06-18 08:52:00,79.0,-99.9,29.95,SW,233,8.0,12.0,-999,-99.99,,,-99.99,,2013-06-18 12:52:00,
2013-06-18 09:02:00,79.0,-99.9,29.95,SW,233,8.0,12.0,-999,-99.99,,,-99.99,,2013-06-18 13:02:00,
2013-06-18 09:12:00,80.0,-99.9,29.96,WSW,239,4.0,11.0,-999,-99.99,,,-99.99,,2013-06-18 13:12:00,
2013-06-18 09:22:00,80.0,-99.9,29.95,WSW,244,7.0,12.0,-999,-99.99,,,-99.99,,2013-06-18 13:22:00,
2013-06-18 09:34:00,80.0,-99.9,29.95,SW,225,6.0,10.0,-999,-99.99,,,-99.99,,2013-06-18 13:34:00,
2013-06-18 09:43:00,80.0,-99.9,29.95,WSW,253,10.0,13.0,-999,-99.99,,,-99.99,,2013-06-18 13:43:00,
2013-06-18 09:53:00,81.0,-99.9,29.95,WSW,238,6.0,13.0,-999,-99.99,,,-99.99,,2013-06-18 13:53:00,
2013-06-18 10:02:00,81.0,-99.9,29.95,WSW,238,6.0,13.0,-999,-99.99,,,-99.99,,2013-06-18 14:02:00,
2013-06-18 10:12:00,82.0,-99.9,29.95,WSW,250,7.0,13.0,-999,-99.99,,,-99.99,,2013-06-18 14:12:00,
2013-06-18 10:22:00,82.0,-99.9,29.95,WSW,253,6.0,12.0,-999,-99.99,,,-99.99,,2013-06-18 14:22:00,
2013-06-18 10:33:00,82.0,-99.9,29.95,West,260,8.0,15.0,-999,-99.99,,,-99.99,,2013-06-18 14:33:00,
2013-06-18 10:43:00,83.0,-99.9,29.95,WSW,252,7.0,12.0,-999,-99.99,,,-99.99,,2013-06-18 14:43:00,
2013-06-18 10:53:00,83.0,-99.9,29.95,WSW,247,10.0,14.0,-999,-99.99,,,-99.99,,2013-06-18 14:53:00,
2013-06-18 11:02:00,83.0,-99.9,29.96,WSW,251,11.0,16.0,-999,-99.99,,,-99.99,,2013-06-18 15:02:00,
2013-06-18 11:11:00,84.0,-99.9,29.95,WSW,248,7.0,15.0,-999,-99.99,,,-99.99,,2013-06-18 15:11:00,
2013-06-18 11:22:00,84.0,-99.9,29.95,WSW,248,7.0,15.0,-999,-99.99,,,-99.99,,2013-06-18 15:22:00,
2013-06-18 11:33:00,84.0,-99.9,29.95,West,274,7.0,16.0,-999,-99.99,,,-99.99,,2013-06-18 15:33:00,
2013-06-18 11:43:00,85.0,-99.9,29.95,WSW,253,8.0,13.0,-999,-99.99,,,-99.99,,2013-06-18 15:43:00,
2013-06-18 11:53:00,85.0,-99.9,29.95,West,271,11.0,15.0,-999,-99.99,,,-99.99,,2013-06-18 15:53:00,
2013-06-18 12:02:00,85.0,-99.9,29.95,West,271,11.0,15.0,-999,-99.99,,,-99.99,,2013-06-18 16:02:00,
2013-06-18 12:12:00,85.0,-99.9,29.95,WSW,238,9.0,14.0,-999,-99.99,,,-99.99,,2013-06-18 16:12:00,
2013-06-18 12:23:00,85.0,-99.9,29.95,West,260,15.0,21.0,-999,-99.99,,,-99.99,,2013-06-18 16:23:00,
2013-06-18 12:33:00,86.0,-99.9,29.95,WSW,258,8.0,19.0,-999,-99.99,,,-99.99,,2013-06-18 16:33:00,
2013-06-18 12:43:00,86.0,-99.9,29.94,WSW,245,9.0,15.0,-999,-99.99,,,-99.99,,2013-06-18 16:43:00,
2013-06-18 12:53:00,86.0,-99.9,29.94,West,277,12.0,18.0,-999,-99.99,,,-99.99,,2013-06-18 16:53:00,
2013-06-18 13:02:00,86.0,-99.9,29.94,West,277,12.0,18.0,-999,-99.99,,,-99.99,,2013-06-18 17:02:00,
2013-06-18 13:12:00,87.0,-99.9,29.94,WSW,248,14.0,19.0,-999,-99.99,,,-99.99,,2013-06-18 17:12:00,
2013-06-18 13:23:00,88.0,-99.9,29.94,West,266,9.0,20.0,-999,-99.99,,,-99.99,,2013-06-18 17:23:00,
2013-06-18 13:34:00,88.0,-99.9,29.93,WSW,242,6.0,16.0,-999,-99.99,,,-99.99,,2013-06-18 17:34:00,
2013-06-18 13:43:00,87.0,-99.9,29.93,West,259,13.0,18.0,-999,-99.99,,,-99.99,,2013-06-18 17:43:00,
2013-06-18 13:53:00,88.0,-99.9,29.93,WSW,250,10.0,13.0,-999,-99.99,,,-99.99,,2013-06-18 17:53:00,
2013-06-18 14:02:00,88.0,-99.9,29.93,WSW,250,10.0,13.0,-999,-99.99,,,-99.99,,2013-06-18 18:02:00,
2013-06-18 14:12:00,88.0,-99.9,29.92,WSW,239,7.0,14.0,-999,-99.99,,,-99.99,,2013-06-18 18:12:00,
2013-06-18 14:22:00,87.0,-99.9,29.92,WSW,256,12.0,16.0,-999,-99.99,,,-99.99,,2013-06-18 18:22:00,
2013-06-18 14:33:00,87.0,-99.9,29.92,WSW,248,9.0,13.0,-999,-99.99,,,-99.99,,2013-06-18 18:33:00,
2013-06-18 14:43:00,87.0,-99.9,29.91,SW,220,9.0,16.0,-999,-99.99,,,-99.99,,2013-06-18 18:43:00,
2013-06-18 14:53:00,86.0,-99.9,29.92,SSW,206,10.0,14.0,-999,-99.99,,,-99.99,,2013-06-18 18:53:00,
2013-06-18 15:02:00,86.0,-99.9,29.92,SSW,206,10.0,14.0,-999,-99.99,,,-99.99,,2013-06-18 19:02:00,
2013-06-18 15:12:00,85.0,-99.9,29.91,SSW,204,10.0,15.0,-999,-99.99,,,-99.99,,2013-06-18 19:12:00,
2013-06-18 15:22:00,84.0,-99.9,29.91,SSW,203,12.0,17.0,-999,-99.99,,,-99.99,,2013-06-18 19:22:00,
2013-06-18 15:34:00,85.0,-99.9,29.91,SSW,208,9.0,16.0,-999,-99.99,,,-99.99,,2013-06-18 19:34:00,
2013-06-18 15:43:00,84.0,-99.9,29.91,SSW,204,13.0,19.0,-999,-99.99,,,-99.99,,2013-06-18 19:43:00,
2013-06-18 15:53:00,84.0,-99.9,29.91,SSW,210,15.0,19.0,-999,-99.99,,,-99.99,,2013-06-18 19:53:00,
2013-06-18 16:02:00,84.0,-99.9,29.91,SSW,210,15.0,19.0,-999,-99.99,,,-99.99,,2013-06-18 20:02:00,
2013-06-18 16:12:00,83.0,-99.9,29.90,SSW,209,14.0,18.0,-999,-99.99,,,-99.99,,2013-06-18 20:12:00,
2013-06-18 16:23:00,83.0,-99.9,29.90,SSW,207,11.0,19.0,-999,-99.99,,,-99.99,,2013-06-18 20:23:00,
2013-06-18 16:33:00,84.0,-99.9,29.90,SSW,209,9.0,14.0,-999,-99.99,,,-99.99,,2013-06-18 20:33:00,
2013-06-18 16:43:00,84.0,-99.9,29.90,SW,218,11.0,18.0,-999,-99.99,,,-99.99,,2013-06-18 20:43:00,
2013-06-18 16:53:00,85.0,-99.9,29.89,SSW,207,12.0,21.0,-999,-99.99,,,-99.99,,2013-06-18 20:53:00,
2013-06-18 17:02:00,85.0,-99.9,29.89,SSW,203,14.0,19.0,-999,-99.99,,,-99.99,,2013-06-18 21:02:00,
2013-06-18 17:12:00,85.0,-99.9,29.89,SSW,203,14.0,19.0,-999,-99.99,,,-99.99,,2013-06-18 21:12:00,
2013-06-18 17:23:00,85.0,-99.9,29.89,SSW,210,11.0,19.0,-999,-99.99,,,-99.99,,2013-06-18 21:23:00,
2013-06-18 17:33:00,85.0,-99.9,29.89,SW,218,14.0,21.0,-999,-99.99,,,-99.99,,2013-06-18 21:33:00,
2013-06-18 17:43:00,84.0,-99.9,29.89,SSW,205,13.0,21.0,-999,-99.99,,,-99.99,,2013-06-18 21:43:00,
2013-06-18 17:53:00,83.0,-99.9,29.88,SSW,200,14.0,19.0,-999,-99.99,,,-99.99,,2013-06-18 21:53:00,
2013-06-18 18:02:00,83.0,-99.9,29.87,SW,221,11.0,18.0,-999,-99.99,,,-99.99,,2013-06-18 22:02:00,
2013-06-18 18:12:00,78.0,-99.9,29.89,WNW,295,7.0,15.0,-999,-99.99,,,-99.99,,2013-06-18 22:12:00,
2013-06-18 18:22:00,78.0,-99.9,29.89,NW,326,3.0,8.0,-999,-99.99,,,-99.99,,2013-06-18 22:22:00,
2013-06-18 18:34:00,80.0,-99.9,29.88,SW,227,5.0,8.0,-999,-99.99,,,-99.99,,2013-06-18 22:34:00,
2013-06-18 18:43:00,79.0,-99.9,29.88,SW,223,4.0,6.0,-999,-99.99,,,-99.99,,2013-06-18 22:43:00,
2013-06-18 18:53:00,79.0,-99.9,29.88,SW,223,4.0,6.0,-999,-99.99,,,-99.99,,2013-06-18 22:53:00,
2013-06-18 19:02:00,80.0,-99.9,29.88,WSW,250,5.0,7.0,-999,-99.99,,,-99.99,,2013-06-18 23:02:00,
2013-06-18 19:12:00,80.0,-99.9,29.87,SSW,194,4.0,6.0,-999,-99.99,,,-99.99,,2013-06-18 23:12:00,
2013-06-18 19:23:00,80.0,-99.9,29.87,SW,231,3.0,4.0,-999,-99.99,,,-99.99,,2013-06-18 23:23:00,
2013-06-18 19:39:00,81.0,-99.9,29.87,SSW,210,3.0,4.0,-999,-99.99,,,-99.99,,2013-06-18 23:39:00,
2013-06-18 19:49:00,81.0,-99.9,29.87,SW,233,4.0,6.0,-999,-99.99,,,-99.99,,2013-06-18 23:49:00,
2013-06-18 20:02:00,81.0,-99.9,29.87,SW,219,4.0,6.0,-999,-99.99,,,-99.99,,2013-06-19 00:02:00,
2013-06-18 20:12:00,81.0,-99.9,29.88,SSW,198,2.0,4.0,-999,-99.99,,,-99.99,,2013-06-19 00:12:00,
2013-06-18 20:22:00,81.0,-99.9,29.88,SW,215,2.0,3.0,-999,-99.99,,,-99.99,,2013-06-19 00:22:00,
2013-06-18 20:33:00,82.0,-99.9,29.89,WSW,255,4.0,5.0,-999,-99.99,,,-99.99,,2013-06-19 00:33:00,
2013-06-18 20:43:00,82.0,-99.9,29.89,WSW,256,4.0,6.0,-999,-99.99,,,-99.99,,2013-06-19 00:43:00,
2013-06-18 20:53:00,81.0,-99.9,29.88,SW,218,3.0,6.0,-999,-99.99,,,-99.99,,2013-06-19 00:53:00,
2013-06-18 21:02:00,81.0,-99.9,29.88,SW,218,3.0,6.0,-999,-99.99,,,-99.99,,2013-06-19 01:02:00,
2013-06-18 21:11:00,80.0,-99.9,29.89,SSW,211,5.0,6.0,-999,-99.99,,,-99.99,,2013-06-19 01:11:00,
2013-06-18 21:22:00,80.0,-99.9,29.89,SSW,200,5.0,7.0,-999,-99.99,,,-99.99,,2013-06-19 01:22:00,
2013-06-18 21:32:00,80.0,-99.9,29.89,SSW,206,6.0,9.0,-999,-99.99,,,-99.99,,2013-06-19 01:32:00,
2013-06-18 21:43:00,81.0,-99.9,29.89,SSW,210,7.0,10.0,-999,-99.99,,,-99.99,,2013-06-19 01:43:00,
2013-06-18 21:53:00,81.0,-99.9,29.89,SSW,210,7.0,10.0,-999,-99.99,,,-99.99,,2013-06-19 01:53:00,
2013-06-18 22:02:00,81.0,-99.9,29.88,SSW,210,8.0,12.0,-999,-99.99,,,-99.99,,2013-06-19 02:02:00,
2013-06-18 22:11:00,81.0,-99.9,29.89,SW,214,8.0,16.0,-999,-99.99,,,-99.99,,2013-06-19 02:11:00,
2013-06-18 22:21:00,81.0,-99.9,29.89,SW,214,8.0,16.0,-999,-99.99,,,-99.99,,2013-06-19 02:21:00,
2013-06-18 22:33:00,81.0,-99.9,29.89,SSW,209,11.0,17.0,-999,-99.99,,,-99.99,,2013-06-19 02:33:00,
2013-06-18 22:43:00,81.0,-99.9,29.89,SSW,213,10.0,14.0,-999,-99.99,,,-99.99,,2013-06-19 02:43:00,
2013-06-18 22:52:00,81.0,-99.9,29.89,SW,214,9.0,15.0,-999,-99.99,,,-99.99,,2013-06-19 02:52:00,
2013-06-18 23:01:00,81.0,-99.9,29.90,SSW,212,11.0,14.0,-999,-99.99,,,-99.99,,2013-06-19 03:01:00,
2013-06-18 23:12:00,81.0,-99.9,29.91,SW,217,11.0,16.0,-999,-99.99,,,-99.99,,2013-06-19 03:12:00,
2013-06-18 23:22:00,81.0,-99.9,29.91,SW,217,11.0,16.0,-999,-99.99,,,-99.99,,2013-06-19 03:22:00,
2013-06-18 23:33:00,81.0,-99.9,29.91,SSW,209,9.0,16.0,-999,-99.99,,,-99.99,,2013-06-19 03:33:00,
2013-06-18 23:43:00,81.0,-99.9,29.91,SW,215,10.0,15.0,-999,-99.99,,,-99.99,,2013-06-19 03:43:00,
2013-06-18 23:52:00,81.0,-99.9,29.91,SW,215,10.0,15.0,-999,-99.99,,,-99.99,,2013-06-19 03:52:00,